sensor_id;sensor_type;location;lat;lon;timestamp;P1;durP1;ratioP1;P2;durP2;ratioP2
77051;SDS011;65980;44.898;8.602;2023-11-19T00:02:01;22.38;;;10.90;;
77051;SDS011;65980;44.898;8.602;2023-11-19T00:05:09;27.58;;;11.00;;
77051;SDS011;65980;44.898;8.602;2023-11-19T00:08:28;22.77;;;10.73;;
77051;SDS011;65980;44.898;8.602;2023-11-19T00:11:35;24.58;;;10.85;;
77051;SDS011;65980;44.898;8.602;2023-11-19T00:14:39;25.10;;;10.75;;
77051;SDS011;65980;44.898;8.602;2023-11-19T00:17:45;19.60;;;10.43;;
77051;SDS011;65980;44.898;8.602;2023-11-19T00:20:51;23.73;;;11.32;;
77051;SDS011;65980;44.898;8.602;2023-11-19T00:23:55;24.85;;;10.48;;
77051;SDS011;65980;44.898;8.602;2023-11-19T00:27:10;19.90;;;10.57;;
77051;SDS011;65980;44.898;8.602;2023-11-19T00:30:18;24.95;;;10.82;;
77051;SDS011;65980;44.898;8.602;2023-11-19T00:33:24;21.00;;;11.13;;
77051;SDS011;65980;44.898;8.602;2023-11-19T00:36:30;19.75;;;11.02;;
77051;SDS011;65980;44.898;8.602;2023-11-19T00:39:37;22.33;;;11.52;;
77051;SDS011;65980;44.898;8.602;2023-11-19T00:42:44;28.73;;;11.70;;
77051;SDS011;65980;44.898;8.602;2023-11-19T00:45:55;19.98;;;11.32;;
77051;SDS011;65980;44.898;8.602;2023-11-19T00:49:05;24.70;;;11.13;;
77051;SDS011;65980;44.898;8.602;2023-11-19T00:52:10;22.20;;;10.55;;
77051;SDS011;65980;44.898;8.602;2023-11-19T00:55:14;23.13;;;10.93;;
77051;SDS011;65980;44.898;8.602;2023-11-19T00:58:18;20.50;;;10.98;;
77051;SDS011;65980;44.898;8.602;2023-11-19T01:04:54;27.33;;;10.88;;
77051;SDS011;65980;44.898;8.602;2023-11-19T01:08:12;25.95;;;11.63;;
77051;SDS011;65980;44.898;8.602;2023-11-19T01:11:26;19.65;;;10.73;;
77051;SDS011;65980;44.898;8.602;2023-11-19T01:14:34;19.52;;;10.85;;
77051;SDS011;65980;44.898;8.602;2023-11-19T01:17:52;35.92;;;15.32;;
77051;SDS011;65980;44.898;8.602;2023-11-19T01:21:04;36.50;;;14.13;;
77051;SDS011;65980;44.898;8.602;2023-11-19T01:24:18;25.92;;;11.23;;
77051;SDS011;65980;44.898;8.602;2023-11-19T01:27:34;21.75;;;11.70;;
77051;SDS011;65980;44.898;8.602;2023-11-19T01:30:41;23.98;;;10.77;;
77051;SDS011;65980;44.898;8.602;2023-11-19T01:37:19;19.33;;;10.35;;
77051;SDS011;65980;44.898;8.602;2023-11-19T01:40:30;22.90;;;10.63;;
77051;SDS011;65980;44.898;8.602;2023-11-19T01:43:35;20.85;;;10.88;;
77051;SDS011;65980;44.898;8.602;2023-11-19T01:46:51;20.15;;;11.57;;
77051;SDS011;65980;44.898;8.602;2023-11-19T01:50:02;24.02;;;10.80;;
77051;SDS011;65980;44.898;8.602;2023-11-19T01:53:22;20.87;;;10.67;;
77051;SDS011;65980;44.898;8.602;2023-11-19T01:56:29;24.77;;;11.32;;
77051;SDS011;65980;44.898;8.602;2023-11-19T02:00:11;21.48;;;10.57;;
77051;SDS011;65980;44.898;8.602;2023-11-19T02:03:30;19.95;;;11.10;;
77051;SDS011;65980;44.898;8.602;2023-11-19T02:06:55;20.52;;;11.00;;
77051;SDS011;65980;44.898;8.602;2023-11-19T02:10:07;23.88;;;11.77;;
77051;SDS011;65980;44.898;8.602;2023-11-19T02:13:32;22.67;;;11.15;;
77051;SDS011;65980;44.898;8.602;2023-11-19T02:20:46;20.42;;;10.63;;
77051;SDS011;65980;44.898;8.602;2023-11-19T02:24:04;21.05;;;10.93;;
77051;SDS011;65980;44.898;8.602;2023-11-19T02:30:54;24.58;;;10.93;;
77051;SDS011;65980;44.898;8.602;2023-11-19T02:37:18;20.63;;;10.77;;
77051;SDS011;65980;44.898;8.602;2023-11-19T02:40:31;20.42;;;10.23;;
77051;SDS011;65980;44.898;8.602;2023-11-19T02:43:36;19.88;;;11.02;;
77051;SDS011;65980;44.898;8.602;2023-11-19T02:47:22;21.25;;;9.90;;
77051;SDS011;65980;44.898;8.602;2023-11-19T02:50:31;22.20;;;10.48;;
77051;SDS011;65980;44.898;8.602;2023-11-19T02:53:42;21.25;;;10.68;;
77051;SDS011;65980;44.898;8.602;2023-11-19T02:57:04;23.30;;;11.07;;
77051;SDS011;65980;44.898;8.602;2023-11-19T03:00:15;18.35;;;10.23;;
77051;SDS011;65980;44.898;8.602;2023-11-19T03:03:21;23.23;;;10.98;;
77051;SDS011;65980;44.898;8.602;2023-11-19T03:06:30;21.88;;;10.50;;
77051;SDS011;65980;44.898;8.602;2023-11-19T03:09:38;21.83;;;12.02;;
77051;SDS011;65980;44.898;8.602;2023-11-19T03:12:58;21.20;;;11.25;;
77051;SDS011;65980;44.898;8.602;2023-11-19T03:16:18;23.77;;;11.40;;
77051;SDS011;65980;44.898;8.602;2023-11-19T03:19:23;21.75;;;10.60;;
77051;SDS011;65980;44.898;8.602;2023-11-19T03:22:37;22.67;;;10.43;;
77051;SDS011;65980;44.898;8.602;2023-11-19T03:25:48;23.83;;;11.60;;
77051;SDS011;65980;44.898;8.602;2023-11-19T03:28:58;24.67;;;10.88;;
77051;SDS011;65980;44.898;8.602;2023-11-19T03:35:33;22.60;;;10.70;;
77051;SDS011;65980;44.898;8.602;2023-11-19T03:38:44;22.40;;;11.52;;
77051;SDS011;65980;44.898;8.602;2023-11-19T03:41:52;27.42;;;12.40;;
77051;SDS011;65980;44.898;8.602;2023-11-19T03:44:57;20.80;;;10.75;;
77051;SDS011;65980;44.898;8.602;2023-11-19T03:48:13;21.40;;;10.95;;
77051;SDS011;65980;44.898;8.602;2023-11-19T03:51:36;20.27;;;10.60;;
77051;SDS011;65980;44.898;8.602;2023-11-19T03:54:44;29.33;;;11.50;;
77051;SDS011;65980;44.898;8.602;2023-11-19T03:57:49;26.40;;;11.05;;
77051;SDS011;65980;44.898;8.602;2023-11-19T04:01:06;21.40;;;11.52;;
77051;SDS011;65980;44.898;8.602;2023-11-19T04:04:19;22.83;;;12.13;;
77051;SDS011;65980;44.898;8.602;2023-11-19T04:07:23;19.60;;;11.15;;
77051;SDS011;65980;44.898;8.602;2023-11-19T04:18:40;23.42;;;11.00;;
77051;SDS011;65980;44.898;8.602;2023-11-19T04:21:44;21.27;;;10.85;;
77051;SDS011;65980;44.898;8.602;2023-11-19T04:24:55;21.48;;;11.00;;
77051;SDS011;65980;44.898;8.602;2023-11-19T04:28:08;22.67;;;11.30;;
77051;SDS011;65980;44.898;8.602;2023-11-19T04:31:13;21.90;;;10.05;;
77051;SDS011;65980;44.898;8.602;2023-11-19T04:34:17;21.88;;;11.80;;
77051;SDS011;65980;44.898;8.602;2023-11-19T04:37:22;24.42;;;10.93;;
77051;SDS011;65980;44.898;8.602;2023-11-19T04:40:33;23.67;;;11.48;;
77051;SDS011;65980;44.898;8.602;2023-11-19T04:43:43;24.42;;;11.75;;
77051;SDS011;65980;44.898;8.602;2023-11-19T04:46:47;20.15;;;10.57;;
77051;SDS011;65980;44.898;8.602;2023-11-19T04:53:25;20.48;;;10.63;;
77051;SDS011;65980;44.898;8.602;2023-11-19T04:56:33;29.45;;;11.95;;
77051;SDS011;65980;44.898;8.602;2023-11-19T04:59:50;23.92;;;11.25;;
77051;SDS011;65980;44.898;8.602;2023-11-19T05:02:54;24.92;;;11.98;;
77051;SDS011;65980;44.898;8.602;2023-11-19T05:06:02;19.15;;;10.60;;
77051;SDS011;65980;44.898;8.602;2023-11-19T05:09:08;21.42;;;11.38;;
77051;SDS011;65980;44.898;8.602;2023-11-19T05:12:13;23.80;;;10.57;;
77051;SDS011;65980;44.898;8.602;2023-11-19T05:15:22;22.98;;;10.85;;
77051;SDS011;65980;44.898;8.602;2023-11-19T05:18:33;19.90;;;10.80;;
77051;SDS011;65980;44.898;8.602;2023-11-19T05:21:38;20.38;;;11.25;;
77051;SDS011;65980;44.898;8.602;2023-11-19T05:24:43;24.60;;;11.20;;
77051;SDS011;65980;44.898;8.602;2023-11-19T05:27:49;30.10;;;12.70;;
77051;SDS011;65980;44.898;8.602;2023-11-19T05:30:57;28.42;;;13.02;;
77051;SDS011;65980;44.898;8.602;2023-11-19T05:34:02;25.42;;;12.68;;
77051;SDS011;65980;44.898;8.602;2023-11-19T05:37:33;23.63;;;11.88;;
77051;SDS011;65980;44.898;8.602;2023-11-19T05:41:07;21.92;;;11.40;;
77051;SDS011;65980;44.898;8.602;2023-11-19T05:44:17;25.85;;;12.60;;
77051;SDS011;65980;44.898;8.602;2023-11-19T05:47:24;24.45;;;13.13;;
77051;SDS011;65980;44.898;8.602;2023-11-19T05:50:28;24.55;;;12.70;;
77051;SDS011;65980;44.898;8.602;2023-11-19T05:53:34;26.33;;;14.05;;
77051;SDS011;65980;44.898;8.602;2023-11-19T05:56:39;27.10;;;12.13;;
77051;SDS011;65980;44.898;8.602;2023-11-19T06:00:30;22.65;;;11.80;;
77051;SDS011;65980;44.898;8.602;2023-11-19T06:03:35;22.33;;;10.80;;
77051;SDS011;65980;44.898;8.602;2023-11-19T06:06:43;24.88;;;11.38;;
77051;SDS011;65980;44.898;8.602;2023-11-19T06:09:49;21.60;;;11.15;;
77051;SDS011;65980;44.898;8.602;2023-11-19T06:12:55;24.23;;;11.43;;
77051;SDS011;65980;44.898;8.602;2023-11-19T06:16:05;25.08;;;11.98;;
77051;SDS011;65980;44.898;8.602;2023-11-19T06:19:14;23.05;;;11.93;;
77051;SDS011;65980;44.898;8.602;2023-11-19T06:22:18;23.05;;;12.48;;
77051;SDS011;65980;44.898;8.602;2023-11-19T06:25:22;22.50;;;11.73;;
77051;SDS011;65980;44.898;8.602;2023-11-19T06:28:34;24.10;;;11.60;;
77051;SDS011;65980;44.898;8.602;2023-11-19T06:34:58;20.02;;;10.70;;
77051;SDS011;65980;44.898;8.602;2023-11-19T06:38:03;21.83;;;11.38;;
77051;SDS011;65980;44.898;8.602;2023-11-19T06:41:16;24.88;;;10.82;;
77051;SDS011;65980;44.898;8.602;2023-11-19T06:44:30;24.70;;;12.00;;
77051;SDS011;65980;44.898;8.602;2023-11-19T06:47:40;20.45;;;11.70;;
77051;SDS011;65980;44.898;8.602;2023-11-19T06:50:48;26.40;;;11.88;;
77051;SDS011;65980;44.898;8.602;2023-11-19T06:57:31;24.98;;;11.52;;
77051;SDS011;65980;44.898;8.602;2023-11-19T07:00:35;24.35;;;12.75;;
77051;SDS011;65980;44.898;8.602;2023-11-19T07:03:52;29.00;;;12.48;;
77051;SDS011;65980;44.898;8.602;2023-11-19T07:06:57;30.35;;;12.32;;
77051;SDS011;65980;44.898;8.602;2023-11-19T07:10:05;23.08;;;11.68;;
77051;SDS011;65980;44.898;8.602;2023-11-19T07:17:40;24.58;;;12.35;;
77051;SDS011;65980;44.898;8.602;2023-11-19T07:20:58;23.25;;;11.63;;
77051;SDS011;65980;44.898;8.602;2023-11-19T07:31:21;21.50;;;12.32;;
77051;SDS011;65980;44.898;8.602;2023-11-19T07:34:32;28.65;;;13.35;;
77051;SDS011;65980;44.898;8.602;2023-11-19T07:37:41;24.08;;;12.27;;
77051;SDS011;65980;44.898;8.602;2023-11-19T07:40:46;27.77;;;13.45;;
77051;SDS011;65980;44.898;8.602;2023-11-19T07:43:58;25.50;;;12.80;;
77051;SDS011;65980;44.898;8.602;2023-11-19T07:47:03;25.60;;;12.85;;
77051;SDS011;65980;44.898;8.602;2023-11-19T07:50:08;23.23;;;12.18;;
77051;SDS011;65980;44.898;8.602;2023-11-19T07:53:41;27.75;;;13.55;;
77051;SDS011;65980;44.898;8.602;2023-11-19T07:56:55;25.75;;;13.50;;
77051;SDS011;65980;44.898;8.602;2023-11-19T08:00:03;26.08;;;12.68;;
77051;SDS011;65980;44.898;8.602;2023-11-19T08:03:20;22.60;;;12.18;;
77051;SDS011;65980;44.898;8.602;2023-11-19T08:07:08;28.13;;;13.30;;
77051;SDS011;65980;44.898;8.602;2023-11-19T08:10:15;28.70;;;13.55;;
77051;SDS011;65980;44.898;8.602;2023-11-19T08:17:28;59.28;;;22.58;;
77051;SDS011;65980;44.898;8.602;2023-11-19T08:20:46;24.13;;;13.65;;
77051;SDS011;65980;44.898;8.602;2023-11-19T08:24:03;25.30;;;11.88;;
77051;SDS011;65980;44.898;8.602;2023-11-19T08:27:18;24.17;;;11.13;;
77051;SDS011;65980;44.898;8.602;2023-11-19T08:30:47;18.55;;;10.20;;
77051;SDS011;65980;44.898;8.602;2023-11-19T08:33:53;18.48;;;10.07;;
77051;SDS011;65980;44.898;8.602;2023-11-19T08:37:18;20.65;;;11.63;;
77051;SDS011;65980;44.898;8.602;2023-11-19T08:40:34;21.55;;;10.93;;
77051;SDS011;65980;44.898;8.602;2023-11-19T08:43:40;21.92;;;11.48;;
77051;SDS011;65980;44.898;8.602;2023-11-19T08:46:51;22.23;;;11.88;;
77051;SDS011;65980;44.898;8.602;2023-11-19T08:50:05;24.45;;;12.52;;
77051;SDS011;65980;44.898;8.602;2023-11-19T08:53:16;25.48;;;12.93;;
77051;SDS011;65980;44.898;8.602;2023-11-19T08:56:21;23.73;;;13.02;;
77051;SDS011;65980;44.898;8.602;2023-11-19T08:59:30;27.38;;;13.32;;
77051;SDS011;65980;44.898;8.602;2023-11-19T09:02:38;24.58;;;13.15;;
77051;SDS011;65980;44.898;8.602;2023-11-19T09:05:54;28.33;;;12.85;;
77051;SDS011;65980;44.898;8.602;2023-11-19T09:08:59;18.50;;;11.65;;
77051;SDS011;65980;44.898;8.602;2023-11-19T09:12:19;22.08;;;11.50;;
77051;SDS011;65980;44.898;8.602;2023-11-19T09:19:14;22.77;;;12.98;;
77051;SDS011;65980;44.898;8.602;2023-11-19T09:22:29;24.40;;;13.82;;
77051;SDS011;65980;44.898;8.602;2023-11-19T09:26:06;22.73;;;12.18;;
77051;SDS011;65980;44.898;8.602;2023-11-19T09:29:21;21.77;;;12.35;;
77051;SDS011;65980;44.898;8.602;2023-11-19T09:32:28;26.63;;;12.77;;
77051;SDS011;65980;44.898;8.602;2023-11-19T09:35:32;26.20;;;12.90;;
77051;SDS011;65980;44.898;8.602;2023-11-19T09:38:40;21.05;;;12.05;;
77051;SDS011;65980;44.898;8.602;2023-11-19T09:50:36;22.80;;;12.68;;
77051;SDS011;65980;44.898;8.602;2023-11-19T09:53:47;23.55;;;14.27;;
77051;SDS011;65980;44.898;8.602;2023-11-19T09:56:53;22.95;;;13.35;;
77051;SDS011;65980;44.898;8.602;2023-11-19T10:00:12;24.08;;;13.60;;
77051;SDS011;65980;44.898;8.602;2023-11-19T10:03:27;25.48;;;13.93;;
77051;SDS011;65980;44.898;8.602;2023-11-19T10:13:53;24.48;;;13.38;;
77051;SDS011;65980;44.898;8.602;2023-11-19T10:16:58;26.98;;;14.05;;
77051;SDS011;65980;44.898;8.602;2023-11-19T10:20:19;26.77;;;14.60;;
77051;SDS011;65980;44.898;8.602;2023-11-19T10:27:14;22.83;;;13.98;;
77051;SDS011;65980;44.898;8.602;2023-11-19T10:30:45;25.15;;;13.82;;
77051;SDS011;65980;44.898;8.602;2023-11-19T10:34:11;25.08;;;14.35;;
77051;SDS011;65980;44.898;8.602;2023-11-19T10:37:30;22.85;;;13.75;;
77051;SDS011;65980;44.898;8.602;2023-11-19T10:40:40;23.10;;;14.20;;
77051;SDS011;65980;44.898;8.602;2023-11-19T10:43:53;23.40;;;13.65;;
77051;SDS011;65980;44.898;8.602;2023-11-19T10:46:58;22.02;;;14.00;;
77051;SDS011;65980;44.898;8.602;2023-11-19T10:54:19;23.30;;;13.55;;
77051;SDS011;65980;44.898;8.602;2023-11-19T10:57:34;30.52;;;15.02;;
77051;SDS011;65980;44.898;8.602;2023-11-19T11:04:04;21.50;;;13.40;;
77051;SDS011;65980;44.898;8.602;2023-11-19T11:07:24;21.13;;;12.98;;
77051;SDS011;65980;44.898;8.602;2023-11-19T11:14:28;20.20;;;13.40;;
77051;SDS011;65980;44.898;8.602;2023-11-19T11:17:36;21.13;;;13.77;;
77051;SDS011;65980;44.898;8.602;2023-11-19T11:28:58;19.92;;;12.88;;
77051;SDS011;65980;44.898;8.602;2023-11-19T11:35:53;22.83;;;14.48;;
77051;SDS011;65980;44.898;8.602;2023-11-19T11:42:59;21.52;;;13.48;;
77051;SDS011;65980;44.898;8.602;2023-11-19T11:46:33;20.25;;;14.00;;
77051;SDS011;65980;44.898;8.602;2023-11-19T11:49:56;22.75;;;14.10;;
77051;SDS011;65980;44.898;8.602;2023-11-19T11:53:19;18.92;;;13.40;;
77051;SDS011;65980;44.898;8.602;2023-11-19T11:56:32;19.23;;;13.05;;
77051;SDS011;65980;44.898;8.602;2023-11-19T11:59:47;20.92;;;14.00;;
77051;SDS011;65980;44.898;8.602;2023-11-19T12:02:51;20.10;;;13.65;;
77051;SDS011;65980;44.898;8.602;2023-11-19T12:06:02;22.70;;;13.88;;
77051;SDS011;65980;44.898;8.602;2023-11-19T12:09:13;19.38;;;12.93;;
77051;SDS011;65980;44.898;8.602;2023-11-19T12:12:18;18.83;;;13.18;;
77051;SDS011;65980;44.898;8.602;2023-11-19T12:19:05;18.23;;;13.57;;
77051;SDS011;65980;44.898;8.602;2023-11-19T12:22:17;19.38;;;13.98;;
77051;SDS011;65980;44.898;8.602;2023-11-19T12:25:22;23.02;;;14.93;;
77051;SDS011;65980;44.898;8.602;2023-11-19T12:28:33;19.83;;;13.85;;
77051;SDS011;65980;44.898;8.602;2023-11-19T12:31:44;29.13;;;16.02;;
77051;SDS011;65980;44.898;8.602;2023-11-19T12:34:52;29.48;;;16.75;;
77051;SDS011;65980;44.898;8.602;2023-11-19T12:38:00;27.77;;;17.10;;
77051;SDS011;65980;44.898;8.602;2023-11-19T12:41:10;31.27;;;19.10;;
77051;SDS011;65980;44.898;8.602;2023-11-19T12:44:25;31.17;;;18.98;;
77051;SDS011;65980;44.898;8.602;2023-11-19T12:47:39;32.35;;;19.13;;
77051;SDS011;65980;44.898;8.602;2023-11-19T12:50:53;39.38;;;19.23;;
77051;SDS011;65980;44.898;8.602;2023-11-19T12:54:16;30.65;;;18.35;;
77051;SDS011;65980;44.898;8.602;2023-11-19T12:57:40;32.65;;;18.52;;
77051;SDS011;65980;44.898;8.602;2023-11-19T13:05:47;32.65;;;19.13;;
77051;SDS011;65980;44.898;8.602;2023-11-19T13:08:43;29.92;;;17.75;;
77051;SDS011;65980;44.898;8.602;2023-11-19T13:12:11;32.00;;;18.05;;
77051;SDS011;65980;44.898;8.602;2023-11-19T13:15:30;32.35;;;19.38;;
77051;SDS011;65980;44.898;8.602;2023-11-19T13:18:44;26.35;;;16.50;;
77051;SDS011;65980;44.898;8.602;2023-11-19T13:21:48;31.05;;;17.45;;
77051;SDS011;65980;44.898;8.602;2023-11-19T13:24:55;27.75;;;17.35;;
77051;SDS011;65980;44.898;8.602;2023-11-19T13:28:44;29.20;;;17.85;;
77051;SDS011;65980;44.898;8.602;2023-11-19T13:32:02;29.13;;;17.05;;
77051;SDS011;65980;44.898;8.602;2023-11-19T13:35:12;31.33;;;17.77;;
77051;SDS011;65980;44.898;8.602;2023-11-19T13:38:29;29.27;;;17.13;;
77051;SDS011;65980;44.898;8.602;2023-11-19T13:49:16;29.75;;;16.42;;
77051;SDS011;65980;44.898;8.602;2023-11-19T13:52:27;29.10;;;17.73;;
77051;SDS011;65980;44.898;8.602;2023-11-19T13:55:33;32.90;;;17.23;;
77051;SDS011;65980;44.898;8.602;2023-11-19T13:58:45;28.65;;;17.63;;
77051;SDS011;65980;44.898;8.602;2023-11-19T14:01:55;29.45;;;17.73;;
77051;SDS011;65980;44.898;8.602;2023-11-19T14:05:02;30.10;;;17.42;;
77051;SDS011;65980;44.898;8.602;2023-11-19T14:08:17;30.58;;;17.60;;
77051;SDS011;65980;44.898;8.602;2023-11-19T14:11:24;25.42;;;16.63;;
77051;SDS011;65980;44.898;8.602;2023-11-19T14:14:43;27.92;;;17.27;;
77051;SDS011;65980;44.898;8.602;2023-11-19T14:18:28;28.77;;;17.23;;
77051;SDS011;65980;44.898;8.602;2023-11-19T14:21:35;30.88;;;16.65;;
77051;SDS011;65980;44.898;8.602;2023-11-19T14:24:58;29.30;;;17.58;;
77051;SDS011;65980;44.898;8.602;2023-11-19T14:31:37;27.42;;;16.83;;
77051;SDS011;65980;44.898;8.602;2023-11-19T14:38:13;27.17;;;15.95;;
77051;SDS011;65980;44.898;8.602;2023-11-19T14:41:22;30.35;;;16.98;;
77051;SDS011;65980;44.898;8.602;2023-11-19T14:44:30;28.58;;;16.85;;
77051;SDS011;65980;44.898;8.602;2023-11-19T14:47:42;27.98;;;16.75;;
77051;SDS011;65980;44.898;8.602;2023-11-19T14:50:47;25.15;;;16.17;;
77051;SDS011;65980;44.898;8.602;2023-11-19T14:53:53;26.35;;;16.73;;
77051;SDS011;65980;44.898;8.602;2023-11-19T14:56:58;30.15;;;17.10;;
77051;SDS011;65980;44.898;8.602;2023-11-19T15:04:07;26.15;;;16.98;;
77051;SDS011;65980;44.898;8.602;2023-11-19T15:10:42;30.42;;;18.48;;
77051;SDS011;65980;44.898;8.602;2023-11-19T15:13:57;31.90;;;19.85;;
77051;SDS011;65980;44.898;8.602;2023-11-19T15:17:09;32.83;;;19.48;;
77051;SDS011;65980;44.898;8.602;2023-11-19T15:20:21;31.30;;;19.08;;
77051;SDS011;65980;44.898;8.602;2023-11-19T15:23:27;32.80;;;20.15;;
77051;SDS011;65980;44.898;8.602;2023-11-19T15:26:33;30.92;;;17.17;;
77051;SDS011;65980;44.898;8.602;2023-11-19T15:29:40;34.55;;;18.40;;
77051;SDS011;65980;44.898;8.602;2023-11-19T15:36:34;35.72;;;19.92;;
77051;SDS011;65980;44.898;8.602;2023-11-19T15:39:56;34.47;;;20.15;;
77051;SDS011;65980;44.898;8.602;2023-11-19T15:43:32;29.65;;;18.77;;
77051;SDS011;65980;44.898;8.602;2023-11-19T15:46:39;34.05;;;20.45;;
77051;SDS011;65980;44.898;8.602;2023-11-19T15:50:03;32.55;;;19.60;;
77051;SDS011;65980;44.898;8.602;2023-11-19T15:57:50;36.85;;;20.02;;
77051;SDS011;65980;44.898;8.602;2023-11-19T16:01:00;32.85;;;19.33;;
77051;SDS011;65980;44.898;8.602;2023-11-19T16:04:06;34.15;;;19.88;;
77051;SDS011;65980;44.898;8.602;2023-11-19T16:07:14;35.70;;;22.00;;
77051;SDS011;65980;44.898;8.602;2023-11-19T16:10:19;37.88;;;21.08;;
77051;SDS011;65980;44.898;8.602;2023-11-19T16:13:25;34.85;;;21.55;;
77051;SDS011;65980;44.898;8.602;2023-11-19T16:16:32;36.80;;;22.30;;
77051;SDS011;65980;44.898;8.602;2023-11-19T16:19:40;41.50;;;23.88;;
77051;SDS011;65980;44.898;8.602;2023-11-19T16:22:52;46.83;;;25.05;;
77051;SDS011;65980;44.898;8.602;2023-11-19T16:26:17;45.15;;;23.65;;
77051;SDS011;65980;44.898;8.602;2023-11-19T16:29:23;49.45;;;27.30;;
77051;SDS011;65980;44.898;8.602;2023-11-19T16:32:28;49.60;;;26.40;;
77051;SDS011;65980;44.898;8.602;2023-11-19T16:35:32;44.20;;;25.90;;
77051;SDS011;65980;44.898;8.602;2023-11-19T16:38:52;47.28;;;27.00;;
77051;SDS011;65980;44.898;8.602;2023-11-19T16:42:03;47.50;;;25.70;;
77051;SDS011;65980;44.898;8.602;2023-11-19T16:45:09;45.83;;;26.52;;
77051;SDS011;65980;44.898;8.602;2023-11-19T16:48:13;50.05;;;26.13;;
77051;SDS011;65980;44.898;8.602;2023-11-19T16:51:18;50.28;;;25.50;;
77051;SDS011;65980;44.898;8.602;2023-11-19T16:54:23;42.90;;;24.83;;
77051;SDS011;65980;44.898;8.602;2023-11-19T16:57:27;48.10;;;25.52;;
77051;SDS011;65980;44.898;8.602;2023-11-19T17:00:31;41.97;;;26.02;;
77051;SDS011;65980;44.898;8.602;2023-11-19T17:03:37;45.17;;;25.15;;
77051;SDS011;65980;44.898;8.602;2023-11-19T17:06:49;44.40;;;25.63;;
77051;SDS011;65980;44.898;8.602;2023-11-19T17:09:54;44.60;;;24.92;;
77051;SDS011;65980;44.898;8.602;2023-11-19T17:13:05;44.97;;;24.92;;
77051;SDS011;65980;44.898;8.602;2023-11-19T17:16:12;45.60;;;24.35;;
77051;SDS011;65980;44.898;8.602;2023-11-19T17:19:20;44.25;;;25.38;;
77051;SDS011;65980;44.898;8.602;2023-11-19T17:22:25;44.53;;;25.98;;
77051;SDS011;65980;44.898;8.602;2023-11-19T17:25:39;40.45;;;25.73;;
77051;SDS011;65980;44.898;8.602;2023-11-19T17:28:48;44.17;;;24.88;;
77051;SDS011;65980;44.898;8.602;2023-11-19T17:31:53;41.42;;;25.98;;
77051;SDS011;65980;44.898;8.602;2023-11-19T17:35:24;42.97;;;25.05;;
77051;SDS011;65980;44.898;8.602;2023-11-19T17:38:55;44.50;;;25.70;;
77051;SDS011;65980;44.898;8.602;2023-11-19T17:42:01;48.38;;;27.05;;
77051;SDS011;65980;44.898;8.602;2023-11-19T17:45:08;45.83;;;26.67;;
77051;SDS011;65980;44.898;8.602;2023-11-19T17:48:13;41.80;;;25.80;;
77051;SDS011;65980;44.898;8.602;2023-11-19T17:51:23;46.17;;;26.08;;
77051;SDS011;65980;44.898;8.602;2023-11-19T17:57:40;43.28;;;24.33;;
77051;SDS011;65980;44.898;8.602;2023-11-19T18:00:49;44.10;;;24.83;;
77051;SDS011;65980;44.898;8.602;2023-11-19T18:03:59;43.53;;;26.75;;
77051;SDS011;65980;44.898;8.602;2023-11-19T18:07:03;49.38;;;27.00;;
77051;SDS011;65980;44.898;8.602;2023-11-19T18:10:08;64.80;;;30.15;;
77051;SDS011;65980;44.898;8.602;2023-11-19T18:13:13;52.70;;;29.38;;
77051;SDS011;65980;44.898;8.602;2023-11-19T18:16:20;59.85;;;30.52;;
77051;SDS011;65980;44.898;8.602;2023-11-19T18:19:25;53.38;;;30.52;;
77051;SDS011;65980;44.898;8.602;2023-11-19T18:22:31;46.13;;;27.90;;
77051;SDS011;65980;44.898;8.602;2023-11-19T18:25:36;48.70;;;28.35;;
77051;SDS011;65980;44.898;8.602;2023-11-19T18:28:41;42.15;;;24.48;;
77051;SDS011;65980;44.898;8.602;2023-11-19T18:31:50;43.25;;;25.20;;
77051;SDS011;65980;44.898;8.602;2023-11-19T18:34:55;47.40;;;25.63;;
77051;SDS011;65980;44.898;8.602;2023-11-19T18:37:59;41.80;;;24.65;;
77051;SDS011;65980;44.898;8.602;2023-11-19T18:41:03;36.85;;;22.77;;
77051;SDS011;65980;44.898;8.602;2023-11-19T18:44:09;39.47;;;22.40;;
77051;SDS011;65980;44.898;8.602;2023-11-19T18:47:53;38.63;;;22.90;;
77051;SDS011;65980;44.898;8.602;2023-11-19T18:51:00;44.42;;;23.92;;
77051;SDS011;65980;44.898;8.602;2023-11-19T18:54:05;43.50;;;25.77;;
77051;SDS011;65980;44.898;8.602;2023-11-19T18:57:10;47.90;;;24.98;;
77051;SDS011;65980;44.898;8.602;2023-11-19T19:00:18;42.97;;;24.42;;
77051;SDS011;65980;44.898;8.602;2023-11-19T19:03:23;48.03;;;25.23;;
77051;SDS011;65980;44.898;8.602;2023-11-19T19:06:30;53.30;;;27.65;;
77051;SDS011;65980;44.898;8.602;2023-11-19T19:09:35;59.13;;;30.38;;
77051;SDS011;65980;44.898;8.602;2023-11-19T19:12:40;61.17;;;30.25;;
77051;SDS011;65980;44.898;8.602;2023-11-19T19:15:51;54.85;;;28.10;;
77051;SDS011;65980;44.898;8.602;2023-11-19T19:18:56;53.20;;;28.20;;
77051;SDS011;65980;44.898;8.602;2023-11-19T19:22:03;50.70;;;27.60;;
77051;SDS011;65980;44.898;8.602;2023-11-19T19:25:09;43.08;;;24.63;;
77051;SDS011;65980;44.898;8.602;2023-11-19T19:28:12;48.45;;;26.90;;
77051;SDS011;65980;44.898;8.602;2023-11-19T19:31:17;44.97;;;25.38;;
77051;SDS011;65980;44.898;8.602;2023-11-19T19:34:22;38.28;;;22.55;;
77051;SDS011;65980;44.898;8.602;2023-11-19T19:37:29;35.92;;;22.17;;
77051;SDS011;65980;44.898;8.602;2023-11-19T19:40:33;42.45;;;23.85;;
77051;SDS011;65980;44.898;8.602;2023-11-19T19:43:37;43.00;;;24.60;;
77051;SDS011;65980;44.898;8.602;2023-11-19T19:46:42;53.78;;;25.30;;
77051;SDS011;65980;44.898;8.602;2023-11-19T19:49:46;41.78;;;26.05;;
77051;SDS011;65980;44.898;8.602;2023-11-19T19:52:51;51.97;;;29.08;;
77051;SDS011;65980;44.898;8.602;2023-11-19T19:55:55;48.03;;;28.55;;
77051;SDS011;65980;44.898;8.602;2023-11-19T19:58:59;49.15;;;27.98;;
77051;SDS011;65980;44.898;8.602;2023-11-19T20:02:03;41.33;;;23.10;;
77051;SDS011;65980;44.898;8.602;2023-11-19T20:05:07;40.85;;;22.58;;
77051;SDS011;65980;44.898;8.602;2023-11-19T20:08:16;44.42;;;23.85;;
77051;SDS011;65980;44.898;8.602;2023-11-19T20:11:21;36.80;;;22.38;;
77051;SDS011;65980;44.898;8.602;2023-11-19T20:17:59;39.40;;;22.40;;
77051;SDS011;65980;44.898;8.602;2023-11-19T20:21:05;40.00;;;22.50;;
77051;SDS011;65980;44.898;8.602;2023-11-19T20:24:14;38.92;;;23.40;;
77051;SDS011;65980;44.898;8.602;2023-11-19T20:27:18;42.35;;;23.33;;
77051;SDS011;65980;44.898;8.602;2023-11-19T20:30:24;40.75;;;23.73;;
77051;SDS011;65980;44.898;8.602;2023-11-19T20:33:28;41.60;;;22.55;;
77051;SDS011;65980;44.898;8.602;2023-11-19T20:36:33;38.28;;;21.35;;
77051;SDS011;65980;44.898;8.602;2023-11-19T20:39:38;42.42;;;23.08;;
77051;SDS011;65980;44.898;8.602;2023-11-19T20:42:43;37.20;;;22.25;;
77051;SDS011;65980;44.898;8.602;2023-11-19T20:48:52;38.95;;;21.10;;
77051;SDS011;65980;44.898;8.602;2023-11-19T20:51:56;35.97;;;21.60;;
77051;SDS011;65980;44.898;8.602;2023-11-19T20:55:00;37.60;;;20.75;;
77051;SDS011;65980;44.898;8.602;2023-11-19T20:58:07;36.60;;;21.25;;
77051;SDS011;65980;44.898;8.602;2023-11-19T21:01:13;39.55;;;21.67;;
77051;SDS011;65980;44.898;8.602;2023-11-19T21:04:19;40.90;;;22.70;;
77051;SDS011;65980;44.898;8.602;2023-11-19T21:07:24;37.85;;;21.85;;
77051;SDS011;65980;44.898;8.602;2023-11-19T21:10:29;36.15;;;21.75;;